createdAt,value
2022-07-29T00:01:03.735Z,68.02
2022-07-29T00:03:39.723Z,67.97
2022-07-29T00:06:16.851Z,67.85
2022-07-29T00:08:52.874Z,67.88
2022-07-29T00:11:28.933Z,67.81
2022-07-29T00:14:05.084Z,67.70
2022-07-29T00:16:41.470Z,67.77
2022-07-29T00:19:17.547Z,67.88
2022-07-29T00:21:53.542Z,67.76
2022-07-29T00:24:29.441Z,67.77
2022-07-29T00:27:05.659Z,67.82
2022-07-29T00:29:41.846Z,67.92
2022-07-29T00:32:18.634Z,67.90
2022-07-29T00:35:12.899Z,68.06
2022-07-29T00:37:49.060Z,67.88
2022-07-29T00:40:25.275Z,67.76
2022-07-29T00:43:01.264Z,67.81
2022-07-29T00:45:37.794Z,67.74
2022-07-29T00:48:13.909Z,67.67
2022-07-29T00:50:51.445Z,67.57
2022-07-29T00:53:28.616Z,67.58
2022-07-29T00:56:05.088Z,67.42
2022-07-29T00:58:42.119Z,67.39
2022-07-29T01:01:18.164Z,67.43
2022-07-29T01:03:54.704Z,67.29
2022-07-29T01:06:31.202Z,67.28
2022-07-29T01:09:08.003Z,67.24
2022-07-29T01:11:45.177Z,67.22
2022-07-29T01:14:23.325Z,67.16
2022-07-29T01:17:14.644Z,67.19
2022-07-29T01:20:04.327Z,67.16
2022-07-29T01:23:14.178Z,67.03
2022-07-29T01:26:29.394Z,67.00
2022-07-29T01:29:21.048Z,67.06
2022-07-29T01:32:01.421Z,66.94
2022-07-29T01:34:49.741Z,66.82
2022-07-29T01:37:38.779Z,66.93
2022-07-29T01:40:26.265Z,66.97
2022-07-29T01:43:12.714Z,66.97
2022-07-29T01:45:58.860Z,67.06
2022-07-29T01:48:48.121Z,67.00
2022-07-29T01:51:34.658Z,67.01
2022-07-29T01:54:19.032Z,67.01
2022-07-29T01:57:00.455Z,66.95
2022-07-29T01:59:39.498Z,67.03
2022-07-29T02:02:18.581Z,67.03
2022-07-29T02:04:56.703Z,67.05
2022-07-29T02:07:36.607Z,67.00
2022-07-29T02:10:17.585Z,67.01
2022-07-29T02:12:58.653Z,66.92
2022-07-29T02:15:38.573Z,66.89
2022-07-29T02:18:19.262Z,66.84
2022-07-29T02:21:01.416Z,66.85
2022-07-29T02:23:50.801Z,66.96
2022-07-29T02:26:31.355Z,66.96
2022-07-29T02:29:08.902Z,67.03
2022-07-29T02:31:48.626Z,67.00
2022-07-29T02:34:25.945Z,67.06
2022-07-29T02:37:05.039Z,67.20
2022-07-29T02:39:45.903Z,67.27
2022-07-29T02:42:25.564Z,67.41
2022-07-29T02:45:01.895Z,67.54
2022-07-29T02:47:46.116Z,67.69
2022-07-29T02:50:32.069Z,67.78
2022-07-29T02:53:18.470Z,67.77
2022-07-29T02:56:01.686Z,67.85
2022-07-29T02:58:43.710Z,67.82
2022-07-29T03:01:25.380Z,67.88
2022-07-29T03:04:07.081Z,67.82
2022-07-29T03:06:45.494Z,67.83
2022-07-29T03:09:23.028Z,67.72
2022-07-29T03:11:59.815Z,67.68
2022-07-29T03:14:37.371Z,67.69
2022-07-29T03:17:15.621Z,67.72
2022-07-29T03:19:52.269Z,67.75
2022-07-29T03:22:29.389Z,67.79
2022-07-29T03:25:13.835Z,67.78
2022-07-29T03:27:50.734Z,67.85
2022-07-29T03:30:26.912Z,67.85
2022-07-29T03:33:03.202Z,67.90
2022-07-29T03:35:49.839Z,67.96
2022-07-29T03:38:31.966Z,67.94
2022-07-29T03:41:16.709Z,67.91
2022-07-29T03:44:00.928Z,67.91
2022-07-29T03:46:41.225Z,67.76
2022-07-29T03:49:19.131Z,67.77
2022-07-29T03:51:55.500Z,67.80
2022-07-29T03:54:31.695Z,67.84
2022-07-29T03:57:09.925Z,67.84
2022-07-29T03:59:46.852Z,67.68
2022-07-29T04:02:28.693Z,67.57
2022-07-29T04:05:13.844Z,67.34
2022-07-29T04:07:52.671Z,66.60
2022-07-29T04:10:31.971Z,65.61
2022-07-29T04:13:09.994Z,64.34
2022-07-29T04:15:46.026Z,62.89
2022-07-29T04:18:22.139Z,61.89
2022-07-29T04:21:00.184Z,61.41
2022-07-29T04:23:36.235Z,60.84
2022-07-29T04:26:28.968Z,59.69
2022-07-29T04:29:05.748Z,58.17
2022-07-29T04:31:41.754Z,56.79
2022-07-29T04:34:19.079Z,55.61
2022-07-29T04:36:55.770Z,54.34
2022-07-29T04:39:32.107Z,54.27
2022-07-29T04:42:11.439Z,53.06
2022-07-29T04:44:47.392Z,52.23
2022-07-29T04:47:26.408Z,51.95
2022-07-29T04:50:02.468Z,51.69
2022-07-29T04:52:38.618Z,50.90
2022-07-29T04:55:16.005Z,49.93
2022-07-29T04:57:51.994Z,49.12
2022-07-29T05:00:33.144Z,48.90
2022-07-29T05:03:09.874Z,48.35
2022-07-29T05:05:45.857Z,48.59
2022-07-29T05:08:21.953Z,47.72
2022-07-29T05:10:58.332Z,47.06
2022-07-29T05:13:47.965Z,46.67
2022-07-29T05:16:24.081Z,45.82
2022-07-29T05:19:00.204Z,45.73
2022-07-29T05:21:36.271Z,45.00
2022-07-29T05:24:13.207Z,45.22
2022-07-29T05:26:49.462Z,45.37
2022-07-29T05:29:43.138Z,45.29
2022-07-29T05:32:21.413Z,44.72
2022-07-29T05:34:57.293Z,44.92
2022-07-29T05:37:33.561Z,44.60
2022-07-29T05:40:11.984Z,44.58
2022-07-29T05:42:48.575Z,44.15
2022-07-29T05:45:25.586Z,43.83
2022-07-29T05:48:01.639Z,43.44
2022-07-29T05:50:37.593Z,43.35
2022-07-29T05:53:24.152Z,43.32
2022-07-29T05:56:00.321Z,43.57
2022-07-29T05:58:36.549Z,43.09
2022-07-29T06:01:12.688Z,42.87
2022-07-29T06:03:48.797Z,42.88
2022-07-29T06:06:25.271Z,41.94
2022-07-29T06:09:01.634Z,41.60
2022-07-29T06:11:48.622Z,41.85
2022-07-29T06:14:24.703Z,41.75
2022-07-29T06:17:00.768Z,41.37
2022-07-29T06:19:42.058Z,41.72
2022-07-29T06:22:20.401Z,41.50
2022-07-29T06:24:56.540Z,41.20
2022-07-29T06:27:32.630Z,41.73
2022-07-29T06:30:11.257Z,41.40
2022-07-29T06:32:47.376Z,41.78
2022-07-29T06:35:42.301Z,41.02
2022-07-29T06:38:31.107Z,40.88
2022-07-29T06:41:16.983Z,40.20
2022-07-29T06:43:55.275Z,40.29
2022-07-29T06:46:33.454Z,40.03
2022-07-29T06:49:09.602Z,39.70
2022-07-29T06:51:45.907Z,39.66
2022-07-29T06:54:22.819Z,40.24
2022-07-29T06:57:00.218Z,39.98
2022-07-29T06:59:36.324Z,40.36
2022-07-29T07:02:12.404Z,40.19
2022-07-29T07:04:48.358Z,40.64
2022-07-29T07:07:25.396Z,41.24
2022-07-29T07:10:01.512Z,41.72
2022-07-29T07:12:37.487Z,41.72
2022-07-29T07:15:15.037Z,41.49
2022-07-29T07:17:51.402Z,41.55
2022-07-29T07:20:27.450Z,41.41
2022-07-29T07:23:03.450Z,41.27
2022-07-29T07:25:39.941Z,41.24
2022-07-29T07:28:16.074Z,41.65
2022-07-29T07:30:53.011Z,41.70
2022-07-29T07:33:29.487Z,42.14
2022-07-29T07:36:05.751Z,42.33
2022-07-29T07:38:41.768Z,43.38
2022-07-29T07:41:17.876Z,43.38
2022-07-29T07:43:53.899Z,43.38
2022-07-29T07:46:29.860Z,43.67
2022-07-29T07:49:05.912Z,44.04
2022-07-29T07:51:42.025Z,44.50
2022-07-29T07:54:26.500Z,44.24
2022-07-29T07:57:02.593Z,44.25
2022-07-29T07:59:38.631Z,44.70
2022-07-29T08:02:15.332Z,44.42
2022-07-29T08:04:51.591Z,44.21
2022-07-29T08:07:27.572Z,44.06
2022-07-29T08:10:03.670Z,43.39
2022-07-29T08:12:39.546Z,43.70
2022-07-29T08:15:16.118Z,42.39
2022-07-29T08:17:52.436Z,42.71
2022-07-29T08:20:28.596Z,42.30
2022-07-29T08:23:05.486Z,42.70
2022-07-29T08:25:42.928Z,42.81
2022-07-29T08:28:18.868Z,43.04
2022-07-29T08:30:55.063Z,42.49
2022-07-29T08:33:31.096Z,42.64
2022-07-29T08:36:08.612Z,42.85
2022-07-29T08:38:44.577Z,42.46
2022-07-29T08:41:21.845Z,42.45
2022-07-29T08:43:58.352Z,42.22
2022-07-29T08:46:34.343Z,42.31
2022-07-29T08:49:10.765Z,42.45
2022-07-29T08:51:53.188Z,42.77
2022-07-29T08:54:30.043Z,42.26
2022-07-29T08:57:07.339Z,42.21
2022-07-29T08:59:48.554Z,42.36
2022-07-29T09:02:30.278Z,42.62
2022-07-29T09:05:09.146Z,43.21
2022-07-29T09:07:49.151Z,43.00
2022-07-29T09:10:25.589Z,42.58
2022-07-29T09:13:03.035Z,42.93
2022-07-29T09:15:39.553Z,42.46
2022-07-29T09:18:35.038Z,42.69
2022-07-29T09:21:31.735Z,42.99
2022-07-29T09:24:11.839Z,43.51
2022-07-29T09:26:49.981Z,43.61
2022-07-29T09:29:31.163Z,43.66
2022-07-29T09:32:14.190Z,43.83
2022-07-29T09:34:50.264Z,44.10
2022-07-29T09:37:34.354Z,44.25
2022-07-29T09:40:20.042Z,43.83
2022-07-29T09:42:58.332Z,44.27
2022-07-29T09:45:38.860Z,44.95
2022-07-29T09:48:24.343Z,43.81
2022-07-29T09:51:01.113Z,44.07
2022-07-29T09:53:42.241Z,44.26
2022-07-29T09:56:18.436Z,43.92
2022-07-29T09:59:12.247Z,44.62
2022-07-29T10:01:48.951Z,43.90
2022-07-29T10:04:25.236Z,44.82
2022-07-29T10:07:06.572Z,45.05
2022-07-29T10:09:51.617Z,44.38
2022-07-29T10:12:28.322Z,44.74
2022-07-29T10:15:08.215Z,44.70
2022-07-29T10:17:44.999Z,44.55
2022-07-29T10:20:21.545Z,44.97
2022-07-29T10:22:58.324Z,44.77
2022-07-29T10:25:35.301Z,45.11
2022-07-29T10:28:16.018Z,45.29
2022-07-29T10:31:01.223Z,44.87
2022-07-29T10:33:54.993Z,44.84
2022-07-29T10:36:54.074Z,44.92
2022-07-29T10:39:57.008Z,43.84
2022-07-29T10:42:42.167Z,44.46
2022-07-29T10:45:22.610Z,44.93
2022-07-29T10:48:10.070Z,44.87
2022-07-29T10:51:07.005Z,44.22
2022-07-29T10:53:55.481Z,44.17
2022-07-29T10:56:35.518Z,44.20
2022-07-29T10:59:36.416Z,44.12
2022-07-29T11:02:56.611Z,45.26
2022-07-29T11:05:53.212Z,44.74
2022-07-29T11:08:31.928Z,44.77
2022-07-29T11:11:44.158Z,44.93
2022-07-29T11:15:02.755Z,44.84
2022-07-29T11:18:17.412Z,44.79
2022-07-29T11:20:55.371Z,45.15
2022-07-29T11:23:36.864Z,45.85
2022-07-29T11:26:26.854Z,45.78
2022-07-29T11:29:22.008Z,45.47
2022-07-29T11:32:18.326Z,44.94
2022-07-29T11:35:37.265Z,44.89
2022-07-29T11:38:32.843Z,45.10
2022-07-29T11:41:31.879Z,44.99
2022-07-29T11:44:09.023Z,45.27
2022-07-29T11:46:53.971Z,45.60
2022-07-29T11:49:33.193Z,45.38
2022-07-29T11:52:12.492Z,44.63
2022-07-29T11:54:57.702Z,44.47
2022-07-29T12:00:40.511Z,44.19
2022-07-29T12:03:35.568Z,44.22
2022-07-29T12:06:21.077Z,43.33
2022-07-29T12:07:02.364Z,44.47
2022-07-29T12:08:57.326Z,43.95
2022-07-29T12:11:34.175Z,43.27
2022-07-29T12:14:10.513Z,42.91
2022-07-29T12:16:48.241Z,43.19
2022-07-29T12:19:24.743Z,44.23
2022-07-29T12:22:02.473Z,43.47
2022-07-29T12:24:50.700Z,43.64
2022-07-29T12:27:33.886Z,43.50
2022-07-29T12:30:19.241Z,43.69
2022-07-29T12:32:56.542Z,42.79
2022-07-29T12:35:33.105Z,43.46
2022-07-29T12:38:11.577Z,44.39
2022-07-29T12:40:50.017Z,44.17
2022-07-29T12:43:27.741Z,44.31
2022-07-29T12:46:18.343Z,43.82
2022-07-29T12:48:59.881Z,44.17
2022-07-29T12:51:41.838Z,44.14
2022-07-29T12:54:19.403Z,44.72
2022-07-29T12:57:05.250Z,44.50
2022-07-29T12:59:41.389Z,44.88
2022-07-29T13:02:28.663Z,44.87
2022-07-29T13:05:07.523Z,44.96
2022-07-29T13:07:55.111Z,45.49
2022-07-29T13:10:39.216Z,44.82
2022-07-29T13:13:18.431Z,45.45
2022-07-29T13:16:11.693Z,45.11
2022-07-29T13:18:47.651Z,45.58
2022-07-29T13:21:23.692Z,45.30
2022-07-29T13:23:59.702Z,45.65
2022-07-29T13:26:35.946Z,45.88
2022-07-29T13:29:11.895Z,46.01
2022-07-29T13:31:47.994Z,46.05
2022-07-29T13:34:25.332Z,46.24
2022-07-29T13:37:01.385Z,45.87
2022-07-29T13:39:38.308Z,45.86
2022-07-29T13:42:15.285Z,44.97
2022-07-29T13:44:52.786Z,43.93
2022-07-29T13:47:32.381Z,43.20
2022-07-29T13:50:12.465Z,43.53
2022-07-29T13:52:49.610Z,44.12
2022-07-29T13:55:26.029Z,43.08
2022-07-29T13:58:02.113Z,42.20
2022-07-29T14:00:40.365Z,42.29
2022-07-29T14:03:16.348Z,42.00
2022-07-29T14:05:52.590Z,42.32
2022-07-29T14:08:29.001Z,41.83
2022-07-29T14:11:05.426Z,41.89
2022-07-29T14:13:41.476Z,41.72
2022-07-29T14:16:17.895Z,42.28
2022-07-29T14:18:53.921Z,42.43
2022-07-29T14:21:29.897Z,42.28
2022-07-29T14:24:17.083Z,42.15
2022-07-29T14:26:54.221Z,42.80
2022-07-29T14:29:37.750Z,42.69
2022-07-29T14:32:15.995Z,43.27
2022-07-29T14:34:52.086Z,43.16
2022-07-29T14:37:28.255Z,42.58
2022-07-29T14:40:16.973Z,42.87
2022-07-29T14:42:53.075Z,43.47
2022-07-29T14:45:30.133Z,43.61
2022-07-29T14:48:06.361Z,43.15
2022-07-29T14:50:42.484Z,43.68
2022-07-29T14:53:18.442Z,44.28
2022-07-29T14:55:54.943Z,45.11
2022-07-29T14:58:31.031Z,45.27
2022-07-29T15:01:07.268Z,45.33
2022-07-29T15:03:43.207Z,45.15
2022-07-29T15:06:19.322Z,45.49
2022-07-29T15:08:55.201Z,45.19
2022-07-29T15:11:31.278Z,45.26
2022-07-29T15:14:13.252Z,45.36
2022-07-29T15:16:49.473Z,45.46
2022-07-29T15:19:29.373Z,45.66
2022-07-29T15:22:07.086Z,45.77
2022-07-29T15:24:42.992Z,46.03
2022-07-29T15:27:18.919Z,46.29
2022-07-29T15:29:54.871Z,46.32
2022-07-29T15:32:33.429Z,46.44
2022-07-29T15:35:11.258Z,46.37
2022-07-29T15:37:48.938Z,46.39
2022-07-29T15:40:25.796Z,46.56
2022-07-29T15:43:06.833Z,46.50
2022-07-29T15:46:07.417Z,46.28
2022-07-29T15:48:44.453Z,46.55
2022-07-29T15:51:20.371Z,46.56
2022-07-29T15:53:56.820Z,46.66
2022-07-29T15:56:33.907Z,47.00
2022-07-29T15:59:22.408Z,46.70
2022-07-29T16:01:58.726Z,46.52
2022-07-29T16:04:35.129Z,46.64
2022-07-29T16:07:11.404Z,46.51
2022-07-29T16:09:52.809Z,46.77
2022-07-29T16:12:29.268Z,46.76
2022-07-29T16:15:09.743Z,46.95
2022-07-29T16:17:47.051Z,47.41
2022-07-29T16:20:23.464Z,47.39
2022-07-29T16:22:59.489Z,47.62
2022-07-29T16:25:58.587Z,48.19
2022-07-29T16:28:31.588Z,48.92
2022-07-29T16:31:07.513Z,50.98
2022-07-29T16:33:54.342Z,54.25
2022-07-29T16:36:31.840Z,54.84
2022-07-29T16:39:08.415Z,56.77
2022-07-29T16:41:44.444Z,57.70
2022-07-29T16:44:20.401Z,59.07
2022-07-29T16:47:01.419Z,57.43
2022-07-29T16:49:38.592Z,58.04
2022-07-29T16:52:14.726Z,59.14
2022-07-29T16:54:52.570Z,60.35
2022-07-29T16:57:28.696Z,60.58
2022-07-29T17:00:05.884Z,61.65
2022-07-29T17:02:41.905Z,62.37
2022-07-29T17:05:18.139Z,63.27
2022-07-29T17:07:54.765Z,63.87
2022-07-29T17:10:31.017Z,64.84
2022-07-29T17:13:07.028Z,65.44
2022-07-29T17:15:45.917Z,66.41
2022-07-29T17:18:21.873Z,67.49
2022-07-29T17:20:57.916Z,68.14
2022-07-29T17:23:35.988Z,69.31
2022-07-29T17:26:11.975Z,69.95
2022-07-29T17:28:49.106Z,70.43
2022-07-29T17:31:25.221Z,71.39
2022-07-29T17:34:02.861Z,72.22
2022-07-29T17:36:40.012Z,72.59
2022-07-29T17:39:16.140Z,73.31
2022-07-29T17:41:52.069Z,73.42
2022-07-29T17:44:28.049Z,74.35
2022-07-29T17:47:04.174Z,74.50
2022-07-29T17:49:40.152Z,74.80
2022-07-29T17:52:18.464Z,74.71
2022-07-29T17:54:55.016Z,74.86
2022-07-29T17:57:31.522Z,75.54
2022-07-29T18:00:15.610Z,76.16
2022-07-29T18:02:55.329Z,76.46
2022-07-29T18:05:31.581Z,76.70
2022-07-29T18:08:07.939Z,76.99
2022-07-29T18:10:44.119Z,77.10
2022-07-29T18:13:20.448Z,77.52
2022-07-29T18:16:00.042Z,77.74
2022-07-29T18:18:36.754Z,78.12
2022-07-29T18:21:13.104Z,78.24
2022-07-29T18:23:50.806Z,78.58
2022-07-29T18:26:30.471Z,78.89
2022-07-29T18:29:06.625Z,79.40
2022-07-29T18:31:46.543Z,79.65
2022-07-29T18:34:22.867Z,79.91
2022-07-29T18:36:59.266Z,80.35
2022-07-29T18:39:36.019Z,80.74
2022-07-29T18:42:12.400Z,81.15
2022-07-29T18:44:49.170Z,81.28
2022-07-29T18:47:32.307Z,81.41
2022-07-29T18:50:10.763Z,81.50
2022-07-29T18:52:47.265Z,81.70
2022-07-29T18:55:24.470Z,81.90
2022-07-29T18:58:00.432Z,82.14
2022-07-29T19:00:36.510Z,82.33
2022-07-29T19:03:12.628Z,82.41
2022-07-29T19:05:49.438Z,82.46
2022-07-29T19:08:25.625Z,82.42
2022-07-29T19:11:02.944Z,82.60
2022-07-29T19:13:39.108Z,83.00
2022-07-29T19:16:15.426Z,83.36
2022-07-29T19:18:51.639Z,83.46
2022-07-29T19:21:27.950Z,83.42
2022-07-29T19:24:07.668Z,83.54
2022-07-29T19:26:46.910Z,83.25
2022-07-29T19:29:23.656Z,83.31
2022-07-29T19:32:01.486Z,83.49
2022-07-29T19:34:37.648Z,83.43
2022-07-29T19:37:13.727Z,83.37
2022-07-29T19:39:49.682Z,83.38
2022-07-29T19:42:25.801Z,84.09
2022-07-29T19:45:01.839Z,83.91
2022-07-29T19:47:38.442Z,83.74
2022-07-29T19:50:15.818Z,83.70
2022-07-29T19:52:52.336Z,83.73
2022-07-29T19:55:28.442Z,83.68
2022-07-29T19:58:06.033Z,83.74
2022-07-29T20:00:44.789Z,83.56
2022-07-29T20:03:20.697Z,83.56
2022-07-29T20:05:56.840Z,83.50
2022-07-29T20:08:32.881Z,83.43
2022-07-29T20:11:09.710Z,83.56
2022-07-29T20:13:45.541Z,83.66
2022-07-29T20:16:22.524Z,83.71
2022-07-29T20:19:01.876Z,84.05
2022-07-29T20:21:38.091Z,84.22
2022-07-29T20:24:14.885Z,84.09
2022-07-29T20:26:51.130Z,84.01
2022-07-29T20:29:27.081Z,84.02
2022-07-29T20:32:04.548Z,84.00
2022-07-29T20:34:41.428Z,84.03
2022-07-29T20:37:20.655Z,84.12
2022-07-29T20:39:56.590Z,84.24
2022-07-29T20:42:32.619Z,84.44
2022-07-29T20:45:11.016Z,84.46
2022-07-29T20:47:47.084Z,84.44
2022-07-29T20:50:24.587Z,84.38
2022-07-29T20:53:00.585Z,84.39
2022-07-29T20:55:36.604Z,84.33
2022-07-29T20:58:13.128Z,84.14
2022-07-29T21:00:49.201Z,84.20
2022-07-29T21:03:25.254Z,84.21
2022-07-29T21:06:01.725Z,84.18
2022-07-29T21:08:38.296Z,84.23
2022-07-29T21:11:14.281Z,84.33
2022-07-29T21:13:50.584Z,84.29
2022-07-29T21:16:28.808Z,84.18
2022-07-29T21:19:05.171Z,84.16
2022-07-29T21:21:41.356Z,84.10
2022-07-29T21:24:17.393Z,84.03
2022-07-29T21:27:20.695Z,84.06
2022-07-29T21:29:57.489Z,84.07
2022-07-29T21:32:36.635Z,84.14
2022-07-29T21:35:35.860Z,84.44
2022-07-29T21:38:09.520Z,84.40
2022-07-29T21:40:45.581Z,84.51
2022-07-29T21:43:23.422Z,84.43
2022-07-29T21:46:00.283Z,84.47
2022-07-29T21:48:37.091Z,84.49
2022-07-29T21:51:15.265Z,84.35
2022-07-29T21:53:53.145Z,84.42
2022-07-29T21:56:31.926Z,84.52
2022-07-29T21:59:09.804Z,84.39
2022-07-29T22:01:49.131Z,84.57
2022-07-29T22:04:25.111Z,84.42
2022-07-29T22:07:01.903Z,84.22
2022-07-29T22:09:38.266Z,84.29
2022-07-29T22:12:14.480Z,84.25
2022-07-29T22:14:50.382Z,84.44
2022-07-29T22:17:26.347Z,84.37
2022-07-29T22:20:06.140Z,84.28
2022-07-29T22:22:42.532Z,84.16
2022-07-29T22:25:18.990Z,83.93
2022-07-29T22:27:54.949Z,84.02
2022-07-29T22:30:31.221Z,84.10
2022-07-29T22:33:07.328Z,84.15
2022-07-29T22:35:43.162Z,84.11
2022-07-29T22:38:19.643Z,84.21
2022-07-29T22:41:00.702Z,84.28
2022-07-29T22:43:39.315Z,84.16
2022-07-29T22:46:16.034Z,84.20
2022-07-29T22:48:52.093Z,84.35
2022-07-29T22:51:28.053Z,84.47
2022-07-29T22:54:04.458Z,84.47
2022-07-29T22:56:40.436Z,84.41
2022-07-29T22:59:16.449Z,84.48
2022-07-29T23:01:52.542Z,84.59
2022-07-29T23:04:29.179Z,84.80
2022-07-29T23:07:05.090Z,84.93
2022-07-29T23:09:41.150Z,85.09
2022-07-29T23:12:17.685Z,85.18
2022-07-29T23:14:53.657Z,85.25
2022-07-29T23:17:29.805Z,85.28
2022-07-29T23:20:09.942Z,85.47
2022-07-29T23:22:46.061Z,85.50
2022-07-29T23:25:22.382Z,85.46
2022-07-29T23:27:58.301Z,85.56
2022-07-29T23:30:34.525Z,85.45
2022-07-29T23:33:10.519Z,85.43
2022-07-29T23:35:46.581Z,85.32
2022-07-29T23:38:22.510Z,85.32
2022-07-29T23:40:58.952Z,85.35
2022-07-29T23:43:37.548Z,85.64
2022-07-29T23:46:13.888Z,85.68
2022-07-29T23:48:51.945Z,85.90
2022-07-29T23:51:29.342Z,86.07
2022-07-29T23:54:09.232Z,86.16
